createdAt,value
2024-03-24T00:00:07.759Z,69.77
2024-03-24T00:01:07.715Z,73.80
2024-03-24T00:02:07.667Z,73.80
2024-03-24T00:03:07.817Z,67.84
2024-03-24T00:04:07.742Z,72.99
2024-03-24T00:05:07.681Z,72.51
2024-03-24T00:06:07.622Z,67.51
2024-03-24T00:07:07.620Z,72.03
2024-03-24T00:08:08.584Z,71.06
2024-03-24T00:09:07.586Z,73.32
2024-03-24T00:10:07.605Z,72.19
2024-03-24T00:11:07.575Z,66.55
2024-03-24T00:12:07.510Z,73.64
2024-03-24T00:13:07.528Z,71.06
2024-03-24T00:14:07.454Z,72.67
2024-03-24T00:15:07.598Z,72.03
2024-03-24T00:16:07.473Z,70.25
2024-03-24T00:17:07.389Z,72.19
2024-03-24T00:18:07.383Z,74.77
2024-03-24T00:19:07.414Z,71.87
2024-03-24T00:20:07.338Z,72.83
2024-03-24T00:21:07.361Z,74.60
2024-03-24T00:22:07.330Z,72.03
2024-03-24T00:23:07.302Z,71.06
2024-03-24T00:24:07.270Z,66.87
2024-03-24T00:25:07.290Z,71.70
2024-03-24T00:26:07.234Z,69.13
2024-03-24T00:27:07.216Z,70.90
2024-03-24T00:28:07.236Z,74.93
2024-03-24T00:29:07.179Z,70.90
2024-03-24T00:30:07.159Z,74.77
2024-03-24T00:31:07.223Z,68.80
2024-03-24T00:32:07.136Z,71.54
2024-03-24T00:33:07.135Z,73.96
2024-03-24T00:34:07.147Z,72.99
2024-03-24T00:35:07.149Z,73.32
2024-03-24T00:36:07.080Z,66.06
2024-03-24T00:37:07.074Z,72.67
2024-03-24T00:38:07.017Z,71.87
2024-03-24T00:39:07.003Z,72.35
2024-03-24T00:40:07.013Z,71.06
2024-03-24T00:41:06.973Z,72.03
2024-03-24T00:42:07.031Z,72.83
2024-03-24T00:43:06.970Z,72.99
2024-03-24T00:44:06.939Z,72.19
2024-03-24T00:45:06.910Z,71.06
2024-03-24T00:46:06.898Z,72.03
2024-03-24T00:47:06.845Z,68.16
2024-03-24T00:48:06.834Z,69.61
2024-03-24T00:49:06.813Z,74.60
2024-03-24T00:50:07.772Z,70.25
2024-03-24T00:51:06.780Z,70.09
2024-03-24T00:52:06.792Z,70.74
2024-03-24T00:53:06.802Z,75.89
2024-03-24T00:54:07.723Z,70.58
2024-03-24T00:55:06.722Z,77.50
2024-03-24T00:56:07.343Z,71.54
2024-03-24T00:57:06.766Z,69.61
2024-03-24T00:58:06.680Z,72.03
2024-03-24T00:59:06.669Z,72.51
2024-03-24T01:00:06.601Z,72.51
2024-03-24T01:01:06.615Z,67.51
2024-03-24T01:02:06.585Z,72.35
2024-03-24T01:03:06.585Z,71.06
2024-03-24T01:04:06.582Z,71.54
2024-03-24T01:05:06.534Z,68.16
2024-03-24T01:06:06.497Z,72.99
2024-03-24T01:07:06.480Z,69.45
2024-03-24T01:08:06.478Z,69.29
2024-03-24T01:09:06.477Z,70.90
2024-03-24T01:10:06.461Z,72.67
2024-03-24T01:11:06.463Z,72.99
2024-03-24T01:12:06.409Z,73.80
2024-03-24T01:13:06.400Z,71.87
2024-03-24T01:14:06.380Z,75.09
2024-03-24T01:15:06.373Z,73.64
2024-03-24T01:16:06.322Z,71.06
2024-03-24T01:17:06.297Z,66.23
2024-03-24T01:18:06.280Z,72.83
2024-03-24T01:19:06.327Z,73.96
2024-03-24T01:20:06.264Z,72.67
2024-03-24T01:21:06.226Z,71.70
2024-03-24T01:22:06.232Z,70.58
2024-03-24T01:23:06.193Z,69.45
2024-03-24T01:24:06.223Z,75.25
2024-03-24T01:25:06.177Z,72.03
2024-03-24T01:26:06.159Z,75.41
2024-03-24T01:27:06.146Z,74.44
2024-03-24T01:28:06.159Z,76.38
2024-03-24T01:29:06.091Z,71.54
2024-03-24T01:30:06.088Z,57.20
2024-03-24T01:31:06.079Z,71.38
2024-03-24T01:32:06.030Z,71.54
2024-03-24T01:33:06.035Z,72.99
2024-03-24T01:34:05.997Z,75.09
2024-03-24T01:35:06.766Z,68.96
2024-03-24T01:36:05.966Z,72.35
2024-03-24T01:37:05.984Z,71.87
2024-03-24T01:38:05.917Z,67.68
2024-03-24T01:39:05.901Z,71.70
2024-03-24T01:40:06.988Z,71.70
2024-03-24T01:41:05.862Z,67.03
2024-03-24T01:42:06.846Z,72.19
2024-03-24T01:43:06.842Z,72.03
2024-03-24T01:44:05.832Z,70.74
2024-03-24T01:45:06.754Z,69.45
2024-03-24T01:46:06.025Z,70.74
2024-03-24T01:47:05.766Z,71.54
2024-03-24T01:48:05.749Z,69.29
2024-03-24T01:49:05.744Z,70.42
2024-03-24T01:50:05.783Z,71.54
2024-03-24T01:51:05.720Z,71.70
2024-03-24T01:52:05.663Z,70.09
2024-03-24T01:53:06.352Z,75.41
2024-03-24T01:54:05.638Z,71.70
2024-03-24T01:55:05.611Z,72.83
2024-03-24T01:56:05.606Z,68.16
2024-03-24T01:57:05.570Z,71.06
2024-03-24T01:58:05.601Z,66.55
2024-03-24T01:59:06.545Z,67.19
2024-03-24T02:00:05.529Z,72.03
2024-03-24T02:01:05.550Z,71.06
2024-03-24T02:02:05.481Z,71.54
2024-03-24T02:03:05.472Z,72.51
2024-03-24T02:04:05.468Z,74.60
2024-03-24T02:05:05.434Z,71.38
2024-03-24T02:06:05.407Z,68.48
2024-03-24T02:07:05.397Z,74.12
2024-03-24T02:08:06.321Z,71.70
2024-03-24T02:09:05.386Z,70.25
2024-03-24T02:10:05.375Z,70.42
2024-03-24T02:11:05.325Z,73.32
2024-03-24T02:12:05.321Z,70.25
2024-03-24T02:13:05.281Z,69.45
2024-03-24T02:14:06.267Z,72.03
2024-03-24T02:15:05.241Z,71.22
2024-03-24T02:16:05.342Z,73.15
2024-03-24T02:17:05.245Z,71.87
2024-03-24T02:18:05.196Z,71.06
2024-03-24T02:19:05.184Z,71.54
2024-03-24T02:20:05.155Z,69.77
2024-03-24T02:21:06.171Z,71.87
2024-03-24T02:22:05.146Z,67.03
2024-03-24T02:23:05.112Z,70.09
2024-03-24T02:24:06.086Z,73.32
2024-03-24T02:25:05.743Z,73.96
2024-03-24T02:26:05.059Z,72.99
2024-03-24T02:27:05.032Z,72.03
2024-03-24T02:28:05.030Z,69.93
2024-03-24T02:29:04.999Z,73.80
2024-03-24T02:30:05.985Z,69.45
2024-03-24T02:31:04.957Z,72.99
2024-03-24T02:32:05.826Z,73.80
2024-03-24T02:33:05.816Z,69.77
2024-03-24T02:34:05.746Z,68.64
2024-03-24T02:35:04.908Z,74.12
2024-03-24T02:36:04.875Z,71.54
2024-03-24T02:37:04.853Z,71.70
2024-03-24T02:38:04.897Z,71.87
2024-03-24T02:39:04.829Z,74.12
2024-03-24T02:40:04.839Z,66.87
2024-03-24T02:41:04.826Z,62.84
2024-03-24T02:42:04.771Z,59.94
2024-03-24T02:43:04.767Z,70.58
2024-03-24T02:44:04.730Z,72.03
2024-03-24T02:45:05.750Z,71.38
2024-03-24T02:46:04.695Z,70.90
2024-03-24T02:47:04.681Z,71.54
2024-03-24T02:48:04.769Z,70.42
2024-03-24T02:49:04.667Z,72.99
2024-03-24T02:50:04.630Z,73.15
2024-03-24T02:51:04.613Z,70.58
2024-03-24T02:52:04.575Z,74.44
2024-03-24T02:53:04.582Z,68.16
2024-03-24T02:54:04.559Z,69.77
2024-03-24T02:55:04.544Z,72.03
2024-03-24T02:56:04.545Z,70.90
2024-03-24T02:57:04.501Z,71.54
2024-03-24T02:58:04.512Z,68.96
2024-03-24T02:59:04.478Z,69.13
2024-03-24T03:00:04.441Z,71.38
2024-03-24T03:01:05.232Z,73.64
2024-03-24T03:02:05.403Z,70.25
2024-03-24T03:03:04.427Z,70.09
2024-03-24T03:04:04.399Z,71.87
2024-03-24T03:05:04.370Z,68.16
2024-03-24T03:06:04.335Z,76.05
2024-03-24T03:07:05.308Z,71.06
2024-03-24T03:08:04.285Z,70.90
2024-03-24T03:09:04.277Z,71.87
2024-03-24T03:10:05.721Z,73.48
2024-03-24T03:11:04.246Z,73.80
2024-03-24T03:12:04.241Z,71.06
2024-03-24T03:13:04.199Z,72.67
2024-03-24T03:14:04.187Z,71.06
2024-03-24T03:15:04.167Z,67.84
2024-03-24T03:16:04.140Z,71.38
2024-03-24T03:17:04.145Z,72.99
2024-03-24T03:18:04.110Z,71.38
2024-03-24T03:19:04.111Z,70.25
2024-03-24T03:20:04.122Z,73.64
2024-03-24T03:21:04.054Z,77.83
2024-03-24T03:22:04.036Z,70.25
2024-03-24T03:23:04.015Z,70.09
2024-03-24T03:24:04.016Z,71.22
2024-03-24T03:25:03.980Z,69.93
2024-03-24T03:26:03.955Z,70.90
2024-03-24T03:27:03.940Z,69.77
2024-03-24T03:28:03.926Z,70.90
2024-03-24T03:29:04.942Z,72.99
2024-03-24T03:30:03.909Z,72.67
2024-03-24T03:31:03.883Z,72.35
2024-03-24T03:32:03.864Z,69.45
2024-03-24T03:33:03.834Z,66.71
2024-03-24T03:34:03.830Z,72.19
2024-03-24T03:35:03.811Z,72.99
2024-03-24T03:36:03.776Z,74.28
2024-03-24T03:37:03.757Z,73.64
2024-03-24T03:38:03.739Z,71.06
2024-03-24T03:39:03.737Z,73.15
2024-03-24T03:40:03.713Z,71.38
2024-03-24T03:41:03.681Z,72.19
2024-03-24T03:42:03.661Z,70.25
2024-03-24T03:43:03.651Z,71.54
2024-03-24T03:44:03.629Z,72.83
2024-03-24T03:45:03.636Z,73.48
2024-03-24T03:46:03.594Z,73.15
2024-03-24T03:47:03.571Z,70.42
2024-03-24T03:48:03.555Z,73.48
2024-03-24T03:49:03.536Z,72.19
2024-03-24T03:50:03.537Z,69.93
2024-03-24T03:51:03.510Z,72.83
2024-03-24T03:52:03.482Z,71.87
2024-03-24T03:53:03.490Z,70.74
2024-03-24T03:54:03.452Z,74.12
2024-03-24T03:55:03.436Z,69.93
2024-03-24T03:56:03.427Z,70.58
2024-03-24T03:57:03.399Z,70.09
2024-03-24T03:58:03.381Z,70.90
2024-03-24T03:59:03.379Z,72.83
2024-03-24T04:00:03.347Z,69.61
2024-03-24T04:01:03.351Z,70.74
2024-03-24T04:02:03.335Z,71.22
2024-03-24T04:03:03.298Z,72.35
2024-03-24T04:04:03.278Z,74.28
2024-03-24T04:05:03.252Z,72.19
2024-03-24T04:06:03.260Z,71.70
2024-03-24T04:07:03.213Z,73.64
2024-03-24T04:08:03.228Z,71.70
2024-03-24T04:09:03.178Z,74.28
2024-03-24T04:10:03.163Z,69.93
2024-03-24T04:11:03.181Z,72.03
2024-03-24T04:12:03.125Z,73.64
2024-03-24T04:13:03.124Z,72.51
2024-03-24T04:14:03.085Z,74.12
2024-03-24T04:15:03.079Z,70.42
2024-03-24T04:16:03.059Z,69.93
2024-03-24T04:17:03.866Z,74.60
2024-03-24T04:18:03.024Z,73.15
2024-03-24T04:19:03.015Z,74.93
2024-03-24T04:20:02.986Z,72.67
2024-03-24T04:21:02.975Z,72.67
2024-03-24T04:22:02.979Z,71.87
2024-03-24T04:23:03.966Z,73.96
2024-03-24T04:24:02.915Z,73.48
2024-03-24T04:25:02.894Z,74.12
2024-03-24T04:26:03.771Z,71.22
2024-03-24T04:27:05.523Z,72.19
2024-03-24T04:28:03.858Z,70.25
2024-03-24T04:29:02.828Z,70.09
2024-03-24T04:30:03.816Z,72.19
2024-03-24T04:31:02.792Z,72.35
2024-03-24T04:32:02.827Z,72.67
2024-03-24T04:33:02.771Z,72.35
2024-03-24T04:34:02.738Z,75.41
2024-03-24T04:35:02.726Z,72.51
2024-03-24T04:36:02.710Z,73.64
2024-03-24T04:37:02.694Z,73.15
2024-03-24T04:38:02.679Z,69.93
2024-03-24T04:39:02.652Z,75.41
2024-03-24T04:40:02.641Z,72.19
2024-03-24T04:41:02.622Z,72.51
2024-03-24T04:42:02.613Z,72.03
2024-03-24T04:43:02.605Z,72.67
2024-03-24T04:44:02.570Z,72.83
2024-03-24T04:45:02.546Z,73.15
2024-03-24T04:46:03.543Z,73.64
2024-03-24T04:47:02.529Z,73.48
2024-03-24T04:48:02.518Z,73.15
2024-03-24T04:49:05.294Z,70.58
2024-03-24T04:50:02.460Z,76.22
2024-03-24T04:51:02.465Z,73.64
2024-03-24T04:52:02.412Z,71.87
2024-03-24T04:53:02.509Z,74.77
2024-03-24T04:54:02.378Z,73.80
2024-03-24T04:55:02.370Z,72.83
2024-03-24T04:56:02.343Z,74.77
2024-03-24T04:57:03.283Z,72.51
2024-03-24T04:58:02.333Z,71.87
2024-03-24T04:59:02.308Z,74.93
2024-03-24T05:00:02.306Z,72.51
2024-03-24T05:01:02.259Z,74.77
2024-03-24T05:02:02.230Z,75.09
2024-03-24T05:03:02.215Z,70.74
2024-03-24T05:04:02.208Z,73.15
2024-03-24T05:05:02.798Z,74.77
2024-03-24T05:06:02.164Z,73.96
2024-03-24T05:07:02.157Z,74.77
2024-03-24T05:08:02.164Z,74.12
2024-03-24T05:09:02.142Z,72.83
2024-03-24T05:10:03.775Z,73.96
2024-03-24T05:11:02.073Z,74.77
2024-03-24T05:12:02.055Z,75.89
2024-03-24T05:13:02.041Z,76.38
2024-03-24T05:14:02.779Z,75.25
2024-03-24T05:15:02.012Z,75.25
2024-03-24T05:16:01.982Z,75.57
2024-03-24T05:17:01.962Z,71.70
2024-03-24T05:18:01.950Z,74.60
2024-03-24T05:19:01.931Z,74.60
2024-03-24T05:20:01.922Z,74.93
2024-03-24T05:21:01.894Z,77.99
2024-03-24T05:22:02.747Z,72.99
2024-03-24T05:23:01.875Z,74.77
2024-03-24T05:24:01.837Z,74.44
2024-03-24T05:25:01.827Z,72.35
2024-03-24T05:26:01.799Z,74.60
2024-03-24T05:27:01.779Z,74.60
2024-03-24T05:28:01.767Z,74.77
2024-03-24T05:29:01.746Z,73.80
2024-03-24T05:30:01.767Z,75.41
2024-03-24T05:31:01.731Z,73.32
2024-03-24T05:32:01.706Z,74.60
2024-03-24T05:33:01.707Z,73.96
2024-03-24T05:34:01.659Z,73.96
2024-03-24T05:35:01.670Z,74.93
2024-03-24T05:36:01.792Z,74.77
2024-03-24T05:37:01.598Z,73.32
2024-03-24T05:38:01.583Z,72.99
2024-03-24T05:39:01.576Z,74.28
2024-03-24T05:40:01.622Z,73.32
2024-03-24T05:41:01.575Z,75.89
2024-03-24T05:42:01.510Z,75.57
2024-03-24T05:43:01.494Z,72.83
2024-03-24T05:44:01.475Z,76.05
2024-03-24T05:45:01.513Z,74.60
2024-03-24T05:46:01.466Z,74.60
2024-03-24T05:47:01.434Z,72.99
2024-03-24T05:48:01.406Z,77.67
2024-03-24T05:49:01.411Z,72.03
2024-03-24T05:50:01.369Z,71.70
2024-03-24T05:51:02.369Z,74.12
2024-03-24T05:52:01.341Z,74.44
2024-03-24T05:53:01.329Z,76.05
2024-03-24T05:54:01.318Z,74.93
2024-03-24T05:55:01.280Z,76.22
2024-03-24T05:56:01.553Z,75.89
2024-03-24T05:57:01.244Z,74.60
2024-03-24T05:58:01.271Z,74.44
2024-03-24T05:59:01.211Z,75.25
2024-03-24T06:00:01.187Z,74.77
2024-03-24T06:01:01.198Z,74.12
2024-03-24T06:02:01.173Z,72.19
2024-03-24T06:03:01.145Z,71.06
2024-03-24T06:04:01.116Z,74.93
2024-03-24T06:05:02.116Z,72.83
2024-03-24T06:06:01.098Z,75.25
2024-03-24T06:07:01.100Z,74.44
2024-03-24T06:08:01.055Z,73.80
2024-03-24T06:09:01.021Z,74.12
2024-03-24T06:10:01.011Z,77.34
2024-03-24T06:11:01.674Z,75.41
2024-03-24T06:12:01.005Z,75.73
2024-03-24T06:13:00.976Z,76.22
2024-03-24T06:14:00.934Z,75.57
2024-03-24T06:15:00.940Z,77.83
2024-03-24T06:16:01.934Z,75.89
2024-03-24T06:17:00.914Z,74.12
2024-03-24T06:18:00.872Z,75.41
2024-03-24T06:19:01.756Z,74.28
2024-03-24T06:20:00.847Z,75.57
2024-03-24T06:21:00.820Z,75.25
2024-03-24T06:22:00.806Z,72.83
2024-03-24T06:23:00.811Z,75.73
2024-03-24T06:24:00.766Z,74.93
2024-03-24T06:25:00.750Z,74.93
2024-03-24T06:26:01.282Z,75.89
2024-03-24T06:27:00.731Z,74.12
2024-03-24T06:28:00.720Z,73.80
2024-03-24T06:29:00.680Z,73.96
2024-03-24T06:30:00.784Z,74.77
2024-03-24T06:31:00.652Z,74.93
2024-03-24T06:32:00.627Z,76.70
2024-03-24T06:33:00.780Z,74.77
2024-03-24T06:34:00.596Z,72.03
2024-03-24T06:35:00.583Z,74.60
2024-03-24T06:36:00.567Z,75.73
2024-03-24T06:37:01.178Z,74.60
2024-03-24T06:38:01.566Z,73.48
2024-03-24T06:39:00.513Z,73.15
2024-03-24T06:40:00.510Z,75.89
2024-03-24T06:41:00.500Z,74.93
2024-03-24T06:42:00.460Z,72.99
2024-03-24T06:43:01.184Z,75.73
2024-03-24T06:44:00.425Z,74.77
2024-03-24T06:45:00.452Z,75.25
2024-03-24T06:46:00.381Z,75.89
2024-03-24T06:47:00.423Z,74.93
2024-03-24T06:48:00.410Z,76.70
2024-03-24T06:49:00.353Z,77.02
2024-03-24T06:50:00.426Z,75.89
2024-03-24T06:51:00.399Z,73.64
2024-03-24T06:52:00.330Z,75.89
2024-03-24T06:53:00.308Z,76.05
2024-03-24T06:54:00.309Z,73.96
2024-03-24T06:55:00.291Z,76.05
2024-03-24T06:56:00.284Z,73.48
2024-03-24T06:57:00.406Z,75.57
2024-03-24T06:58:00.182Z,75.41
2024-03-24T06:59:00.176Z,75.41
2024-03-24T07:00:00.200Z,75.89
2024-03-24T07:01:00.126Z,75.25
2024-03-24T07:02:00.109Z,76.86
2024-03-24T07:03:00.067Z,75.41
2024-03-24T07:04:00.065Z,77.18
2024-03-24T07:05:00.043Z,75.41
2024-03-24T07:06:00.034Z,75.41
2024-03-24T07:06:59.995Z,74.77
2024-03-24T07:07:59.995Z,75.41
2024-03-24T07:08:59.959Z,74.60
2024-03-24T07:10:02.812Z,74.93
2024-03-24T07:11:00.924Z,73.80
2024-03-24T07:11:59.920Z,74.28
2024-03-24T07:12:59.883Z,75.41
2024-03-24T07:13:59.866Z,74.93
2024-03-24T07:14:59.880Z,75.41
2024-03-24T07:15:59.829Z,74.60
2024-03-24T07:16:59.814Z,74.93
2024-03-24T07:17:59.910Z,77.18
2024-03-24T07:18:59.773Z,74.60
2024-03-24T07:20:00.784Z,77.18
2024-03-24T07:20:59.736Z,78.15
2024-03-24T07:21:59.727Z,75.41
2024-03-24T07:22:59.730Z,77.18
2024-03-24T07:23:59.700Z,75.73
2024-03-24T07:24:59.670Z,77.99
2024-03-24T07:25:59.655Z,74.93
2024-03-24T07:26:59.630Z,76.86
2024-03-24T07:28:00.613Z,73.64
2024-03-24T07:28:59.600Z,75.89
2024-03-24T07:29:59.583Z,72.99
2024-03-24T07:30:59.565Z,77.99
2024-03-24T07:32:00.182Z,76.22
2024-03-24T07:32:59.528Z,75.73
2024-03-24T07:33:59.497Z,74.93
2024-03-24T07:34:59.478Z,74.93
2024-03-24T07:35:59.506Z,75.41
2024-03-24T07:37:00.438Z,76.05
2024-03-24T07:37:59.430Z,76.22
2024-03-24T07:38:59.435Z,76.86
2024-03-24T07:39:59.395Z,75.09
2024-03-24T07:40:59.408Z,74.60
2024-03-24T07:41:59.356Z,75.57
2024-03-24T07:43:00.460Z,76.54
2024-03-24T07:43:59.309Z,74.93
2024-03-24T07:44:59.301Z,73.96
2024-03-24T07:45:59.291Z,77.99
2024-03-24T07:46:59.287Z,75.25
2024-03-24T07:47:59.243Z,74.60
2024-03-24T07:48:59.237Z,75.57
2024-03-24T07:49:59.207Z,74.12
2024-03-24T07:50:59.187Z,74.60
2024-03-24T07:51:59.181Z,76.70
2024-03-24T07:52:59.162Z,75.09
2024-03-24T07:53:59.671Z,76.86
2024-03-24T07:54:59.115Z,75.41
2024-03-24T07:55:59.102Z,76.38
2024-03-24T07:57:00.097Z,76.86
2024-03-24T07:57:59.051Z,76.70
2024-03-24T07:58:59.040Z,76.54
2024-03-24T07:59:59.017Z,75.89
2024-03-24T08:00:59.001Z,75.25
2024-03-24T08:01:59.753Z,77.83
2024-03-24T08:02:58.975Z,75.25
2024-03-24T08:03:58.943Z,76.86
2024-03-24T08:04:58.937Z,76.54
2024-03-24T08:05:58.908Z,75.57
2024-03-24T08:06:58.887Z,74.44
2024-03-24T08:07:58.904Z,77.34
2024-03-24T08:08:58.844Z,77.34
2024-03-24T08:09:58.870Z,76.86
2024-03-24T08:10:58.812Z,73.15
2024-03-24T08:11:58.801Z,75.41
2024-03-24T08:12:58.837Z,76.38
2024-03-24T08:13:58.753Z,76.05
2024-03-24T08:14:58.745Z,75.89
2024-03-24T08:15:58.719Z,77.02
2024-03-24T08:16:58.699Z,75.41
2024-03-24T08:17:58.750Z,76.22
2024-03-24T08:18:58.660Z,74.12
2024-03-24T08:19:58.643Z,76.22
2024-03-24T08:20:58.615Z,74.93
2024-03-24T08:22:00.622Z,76.22
2024-03-24T08:22:58.615Z,76.38
2024-03-24T08:23:58.564Z,77.83
2024-03-24T08:24:58.558Z,76.70
2024-03-24T08:25:58.532Z,76.05
2024-03-24T08:26:58.511Z,75.41
2024-03-24T08:27:58.490Z,76.22
2024-03-24T08:28:58.742Z,77.34
2024-03-24T08:29:58.461Z,76.54
2024-03-24T08:30:58.445Z,77.83
2024-03-24T08:31:58.436Z,75.41
2024-03-24T08:32:58.414Z,75.73
2024-03-24T08:33:58.394Z,75.89
2024-03-24T08:34:58.359Z,76.54
2024-03-24T08:35:58.342Z,76.38
2024-03-24T08:36:58.322Z,77.18
2024-03-24T08:37:58.310Z,77.83
2024-03-24T08:38:58.308Z,76.38
2024-03-24T08:39:58.278Z,75.41
2024-03-24T08:40:59.228Z,77.50
2024-03-24T08:42:02.532Z,76.86
2024-03-24T08:43:00.216Z,76.05
2024-03-24T08:43:58.675Z,78.31
2024-03-24T08:44:59.176Z,77.67
2024-03-24T08:45:59.158Z,77.67
2024-03-24T08:46:58.143Z,77.50
2024-03-24T08:47:58.125Z,77.18
2024-03-24T08:48:58.133Z,75.89
2024-03-24T08:49:58.092Z,78.47
2024-03-24T08:50:58.076Z,77.18
2024-03-24T08:51:58.045Z,76.05
2024-03-24T08:52:58.020Z,78.47
2024-03-24T08:53:58.014Z,77.02
2024-03-24T08:54:58.002Z,75.89
2024-03-24T08:55:57.965Z,77.50
2024-03-24T08:56:57.940Z,76.86
2024-03-24T08:57:58.924Z,77.50
2024-03-24T08:58:57.909Z,77.67
2024-03-24T08:59:57.912Z,77.99
2024-03-24T09:00:57.869Z,75.73
2024-03-24T09:01:57.866Z,76.38
2024-03-24T09:02:57.838Z,75.89
2024-03-24T09:03:57.824Z,76.54
2024-03-24T09:04:57.830Z,75.73
2024-03-24T09:05:57.788Z,76.38
2024-03-24T09:06:57.762Z,76.86
2024-03-24T09:07:57.742Z,76.38
2024-03-24T09:08:57.735Z,76.86
2024-03-24T09:09:57.712Z,77.34
2024-03-24T09:10:57.690Z,75.25
2024-03-24T09:11:57.666Z,75.25
2024-03-24T09:12:57.644Z,77.67
2024-03-24T09:13:57.623Z,77.02
2024-03-24T09:14:57.617Z,77.02
2024-03-24T09:15:57.599Z,78.15
2024-03-24T09:16:57.575Z,76.38
2024-03-24T09:17:57.554Z,74.60
2024-03-24T09:18:57.537Z,79.28
2024-03-24T09:19:57.522Z,77.34
2024-03-24T09:20:57.525Z,77.34
2024-03-24T09:21:57.494Z,77.99
2024-03-24T09:22:57.475Z,78.15
2024-03-24T09:23:57.451Z,77.83
2024-03-24T09:24:57.434Z,78.47
2024-03-24T09:25:57.464Z,76.22
2024-03-24T09:26:57.394Z,78.96
2024-03-24T09:27:57.392Z,76.70
2024-03-24T09:28:57.371Z,76.38
2024-03-24T09:29:57.359Z,75.57
2024-03-24T09:30:57.330Z,77.02
2024-03-24T09:31:57.322Z,79.28
2024-03-24T09:32:57.288Z,77.99
2024-03-24T09:33:57.269Z,77.02
2024-03-24T09:35:05.307Z,76.86
2024-03-24T09:35:59.243Z,79.28
2024-03-24T09:36:57.226Z,76.86
2024-03-24T09:37:57.210Z,76.54
2024-03-24T09:38:57.190Z,78.47
2024-03-24T09:39:57.162Z,77.02
2024-03-24T09:40:57.149Z,77.02
2024-03-24T09:41:57.245Z,76.54
2024-03-24T09:42:57.113Z,77.02
2024-03-24T09:43:57.094Z,77.50
2024-03-24T09:44:57.078Z,78.63
2024-03-24T09:45:57.061Z,74.93
2024-03-24T09:46:57.058Z,76.70
2024-03-24T09:47:57.052Z,78.15
2024-03-24T09:48:57.012Z,76.86
2024-03-24T09:49:57.989Z,77.83
2024-03-24T09:50:56.962Z,76.38
2024-03-24T09:51:58.734Z,77.18
2024-03-24T09:52:57.714Z,76.86
2024-03-24T09:53:56.920Z,77.83
2024-03-24T09:54:56.901Z,77.99
2024-03-24T09:55:56.896Z,77.99
2024-03-24T09:56:56.890Z,75.09
2024-03-24T09:58:06.904Z,76.86
2024-03-24T09:58:57.836Z,77.34
2024-03-24T09:59:56.814Z,77.67
2024-03-24T10:00:57.705Z,77.99
2024-03-24T10:01:56.782Z,75.73
2024-03-24T10:02:56.778Z,76.86
2024-03-24T10:03:56.744Z,76.70
2024-03-24T10:04:56.722Z,77.18
2024-03-24T10:05:56.708Z,75.57
2024-03-24T10:06:56.695Z,76.05
2024-03-24T10:07:56.704Z,76.70
2024-03-24T10:08:56.678Z,77.34
2024-03-24T10:09:57.182Z,76.86
2024-03-24T10:10:56.631Z,76.38
2024-03-24T10:11:56.603Z,75.89
2024-03-24T10:12:56.619Z,75.57
2024-03-24T10:13:56.567Z,76.70
2024-03-24T10:14:56.583Z,76.70
2024-03-24T10:15:56.547Z,77.02
2024-03-24T10:16:56.527Z,78.47
2024-03-24T10:17:56.509Z,77.83
2024-03-24T10:18:56.489Z,75.73
2024-03-24T10:19:56.477Z,75.57
2024-03-24T10:20:56.442Z,78.15
2024-03-24T10:21:56.424Z,76.05
2024-03-24T10:22:56.420Z,77.02
2024-03-24T10:23:56.403Z,77.34
2024-03-24T10:24:56.393Z,78.79
2024-03-24T10:25:56.370Z,78.96
2024-03-24T10:26:56.341Z,77.34
2024-03-24T10:27:56.312Z,76.70
2024-03-24T10:28:56.319Z,77.18
2024-03-24T10:29:56.286Z,78.79
2024-03-24T10:30:56.259Z,76.22
2024-03-24T10:31:56.248Z,77.83
2024-03-24T10:32:56.224Z,76.38
2024-03-24T10:33:56.241Z,76.70
2024-03-24T10:34:56.191Z,77.50
2024-03-24T10:35:56.179Z,77.83
2024-03-24T10:36:56.157Z,76.22
2024-03-24T10:37:56.137Z,77.50
2024-03-24T10:38:56.114Z,77.83
2024-03-24T10:39:56.114Z,74.77
2024-03-24T10:40:56.072Z,73.80
2024-03-24T10:41:57.074Z,74.44
2024-03-24T10:42:56.050Z,76.22
2024-03-24T10:43:56.624Z,74.77
2024-03-24T10:44:56.042Z,75.89
2024-03-24T10:45:56.009Z,75.89
2024-03-24T10:46:55.982Z,75.73
2024-03-24T10:47:55.975Z,76.22
2024-03-24T10:48:55.949Z,76.70
2024-03-24T10:49:55.932Z,75.57
2024-03-24T10:50:55.925Z,76.54
2024-03-24T10:51:55.895Z,76.38
2024-03-24T10:52:58.128Z,76.54
2024-03-24T10:53:55.860Z,77.50
2024-03-24T10:54:55.840Z,78.47
2024-03-24T10:55:55.828Z,77.50
2024-03-24T10:56:55.818Z,77.34
2024-03-24T10:57:55.787Z,76.38
2024-03-24T10:58:55.760Z,76.70
2024-03-24T10:59:56.626Z,77.34
2024-03-24T11:00:55.748Z,78.15
2024-03-24T11:01:55.715Z,75.57
2024-03-24T11:02:55.692Z,75.73
2024-03-24T11:03:55.675Z,76.38
2024-03-24T11:04:55.655Z,76.38
2024-03-24T11:05:55.667Z,75.57
2024-03-24T11:06:55.624Z,77.67
2024-03-24T11:07:55.609Z,75.57
2024-03-24T11:08:55.590Z,76.54
2024-03-24T11:09:55.568Z,75.57
2024-03-24T11:10:56.588Z,77.02
2024-03-24T11:11:55.534Z,76.86
2024-03-24T11:12:55.527Z,74.77
2024-03-24T11:13:55.510Z,77.34
2024-03-24T11:14:56.488Z,77.34
2024-03-24T11:15:55.468Z,75.73
2024-03-24T11:16:55.477Z,78.63
2024-03-24T11:17:55.440Z,76.70
2024-03-24T11:18:57.207Z,76.70
2024-03-24T11:19:56.398Z,77.02
2024-03-24T11:20:55.389Z,75.09
2024-03-24T11:21:55.365Z,75.25
2024-03-24T11:22:55.347Z,76.05
2024-03-24T11:23:55.344Z,76.38
2024-03-24T11:24:55.310Z,75.57
2024-03-24T11:25:55.293Z,75.73
2024-03-24T11:26:55.308Z,77.18
2024-03-24T11:27:55.256Z,75.41
2024-03-24T11:28:55.251Z,77.02
2024-03-24T11:29:56.122Z,77.18
2024-03-24T11:30:56.210Z,76.38
2024-03-24T11:31:55.208Z,74.44
2024-03-24T11:32:55.184Z,77.02
2024-03-24T11:33:55.157Z,74.60
2024-03-24T11:34:55.142Z,76.54
2024-03-24T11:35:55.123Z,75.57
2024-03-24T11:36:55.102Z,74.93
2024-03-24T11:37:55.103Z,76.54
2024-03-24T11:38:55.072Z,75.09
2024-03-24T11:39:55.048Z,75.89
2024-03-24T11:40:55.040Z,75.25
2024-03-24T11:41:55.021Z,76.54
2024-03-24T11:42:55.026Z,76.86
2024-03-24T11:43:54.985Z,76.05
2024-03-24T11:44:54.966Z,76.86
2024-03-24T11:45:54.948Z,75.41
2024-03-24T11:46:54.940Z,74.28
2024-03-24T11:47:54.951Z,75.89
2024-03-24T11:48:54.908Z,75.57
2024-03-24T11:49:54.881Z,73.48
2024-03-24T11:50:54.869Z,76.05
2024-03-24T11:51:54.846Z,75.89
2024-03-24T11:52:54.841Z,78.15
2024-03-24T11:53:54.820Z,76.86
2024-03-24T11:54:54.805Z,76.05
2024-03-24T11:55:54.784Z,76.54
2024-03-24T11:56:54.771Z,76.70
2024-03-24T11:57:54.748Z,76.86
2024-03-24T11:58:54.747Z,76.22
2024-03-24T11:59:54.712Z,75.41
2024-03-24T12:00:54.688Z,77.99
2024-03-24T12:01:55.679Z,75.25
2024-03-24T12:02:54.662Z,76.86
2024-03-24T12:03:54.664Z,75.57
2024-03-24T12:04:54.625Z,76.86
2024-03-24T12:05:54.607Z,75.57
2024-03-24T12:06:54.594Z,77.18
2024-03-24T12:07:55.180Z,76.38
2024-03-24T12:08:54.588Z,74.60
2024-03-24T12:09:54.539Z,75.57
2024-03-24T12:10:54.520Z,75.89
2024-03-24T12:11:55.214Z,76.38
2024-03-24T12:12:54.500Z,86.69
2024-03-24T12:13:54.463Z,88.95
2024-03-24T12:14:54.466Z,92.17
2024-03-24T12:15:54.431Z,74.93
2024-03-24T12:16:54.425Z,74.77
2024-03-24T12:17:54.409Z,76.38
2024-03-24T12:18:54.386Z,76.86
2024-03-24T12:19:54.381Z,76.86
2024-03-24T12:20:54.492Z,77.18
2024-03-24T12:21:54.351Z,76.70
2024-03-24T12:22:54.588Z,74.44
2024-03-24T12:23:54.295Z,76.54
2024-03-24T12:24:54.303Z,75.57
2024-03-24T12:25:54.251Z,75.73
2024-03-24T12:26:55.267Z,75.73
2024-03-24T12:27:54.234Z,78.47
2024-03-24T12:28:54.227Z,74.60
2024-03-24T12:29:54.217Z,73.96
2024-03-24T12:30:55.193Z,76.05
2024-03-24T12:31:54.164Z,78.15
2024-03-24T12:32:54.143Z,73.64
2024-03-24T12:33:55.155Z,75.89
2024-03-24T12:34:55.836Z,76.70
2024-03-24T12:35:56.117Z,76.38
2024-03-24T12:36:54.073Z,75.25
2024-03-24T12:37:55.057Z,76.05
2024-03-24T12:38:54.037Z,74.77
2024-03-24T12:39:54.026Z,75.09
2024-03-24T12:40:55.446Z,75.73
2024-03-24T12:41:54.988Z,77.67
2024-03-24T12:42:53.971Z,74.93
2024-03-24T12:43:53.958Z,76.05
2024-03-24T12:44:53.945Z,74.77
2024-03-24T12:45:53.937Z,76.05
2024-03-24T12:46:53.907Z,79.12
2024-03-24T12:47:54.597Z,75.57
2024-03-24T12:48:53.872Z,74.93
2024-03-24T12:50:55.212Z,76.70
2024-03-24T12:51:54.829Z,74.60
2024-03-24T12:52:53.808Z,74.60